Time;durP1;ratioP1;P1;durP2;ratioP2;P2;SDS_P1;SDS_P2;PMS_P1;PMS_P2;Temp;Humidity;BMP_temperature;BMP_pressure;BME280_temperature;BME280_humidity;BME280_pressure;Samples;Min_cycle;Max_cycle;Signal;HPM_P1;HPM_P2
2021/06/20 00:00:20;;;;;;;13.93;11.37;;;22.30;77.10;;;;;;5092643;28;20431;-68
2021/06/20 00:02:48;;;;;;;11.07;9.93;;;22.30;77.00;;;;;;5093042;28;20467;-68
2021/06/20 00:05:17;;;;;;;15.30;11.57;;;22.30;77.10;;;;;;5092520;28;20886;-68
2021/06/20 00:07:46;;;;;;;13.10;10.70;;;22.30;77.40;;;;;;5093001;28;20439;-67
2021/06/20 00:10:15;;;;;;;11.80;9.77;;;22.20;77.60;;;;;;5092290;28;20470;-69
2021/06/20 00:12:42;;;;;;;11.13;10.03;;;22.20;77.70;;;;;;5093047;28;20443;-67
2021/06/20 00:15:12;;;;;;;11.40;10.30;;;22.20;77.90;;;;;;5092272;28;20427;-67
2021/06/20 00:17:41;;;;;;;15.30;10.83;;;22.20;78.30;;;;;;5092759;28;20484;-68
2021/06/20 00:20:11;;;;;;;10.60;9.60;;;22.20;78.20;;;;;;5092120;28;20431;-67
2021/06/20 00:22:38;;;;;;;13.17;11.87;;;22.20;78.10;;;;;;5092678;28;20484;-68
2021/06/20 00:25:07;;;;;;;13.10;11.80;;;22.20;78.50;;;;;;5092359;28;20435;-67
2021/06/20 00:27:34;;;;;;;13.23;11.90;;;22.20;78.60;;;;;;5092763;28;20435;-67
2021/06/20 00:30:02;;;;;;;14.83;12.43;;;22.10;78.50;;;;;;5091898;28;20483;-68
2021/06/20 00:32:28;;;;;;;15.33;13.27;;;22.10;78.50;;;;;;5092447;28;20832;-68
2021/06/20 00:34:57;;;;;;;15.43;12.27;;;22.10;78.50;;;;;;5092425;28;20933;-68
2021/06/20 00:37:28;;;;;;;17.40;12.57;;;22.20;78.70;;;;;;5092444;28;20454;-67
2021/06/20 00:39:55;;;;;;;11.70;10.60;;;22.20;79.30;;;;;;5091699;28;20450;-68
2021/06/20 00:42:22;;;;;;;12.40;10.80;;;22.20;79.40;;;;;;5092408;28;20439;-67
2021/06/20 00:44:51;;;;;;;12.47;11.27;;;22.10;79.40;;;;;;5092060;28;20505;-67
2021/06/20 00:47:19;;;;;;;12.67;11.27;;;22.10;80.00;;;;;;5092316;28;20495;-67
2021/06/20 00:49:47;;;;;;;12.80;11.50;;;21.90;80.70;;;;;;5091973;28;20475;-67
2021/06/20 00:52:16;;;;;;;14.67;11.67;;;21.90;80.40;;;;;;5092328;28;20500;-67
2021/06/20 00:54:53;;;;;;;12.60;11.40;;;21.90;79.90;;;;;;5092223;28;20447;-67
2021/06/20 00:57:23;;;;;;;13.90;10.77;;;21.90;80.20;;;;;;5092255;28;20511;-67
2021/06/20 00:59:51;;;;;;;12.53;11.23;;;21.80;80.50;;;;;;5091791;28;20439;-67
2021/06/20 01:02:20;;;;;;;15.07;13.40;;;21.80;80.90;;;;;;5092236;28;20442;-68
2021/06/20 01:04:49;;;;;;;14.23;12.73;;;21.70;81.00;;;;;;5092138;28;20504;-67
2021/06/20 01:07:19;;;;;;;13.80;12.30;;;21.70;81.20;;;;;;5092036;28;20914;-68
2021/06/20 01:09:47;;;;;;;12.43;11.03;;;21.70;81.50;;;;;;5091782;28;20536;-68
2021/06/20 01:12:16;;;;;;;14.27;12.17;;;21.80;81.80;;;;;;5095862;28;20443;-67
2021/06/20 01:14:44;;;;;;;18.30;11.37;;;21.80;81.80;;;;;;5095769;28;20882;-67
2021/06/20 01:17:12;;;;;;;12.80;11.33;;;21.80;81.80;;;;;;5096095;28;20434;-67
2021/06/20 01:19:41;;;;;;;12.67;11.17;;;21.90;81.90;;;;;;5096087;28;20524;-67
2021/06/20 01:22:28;;;;;;;13.27;11.83;;;21.90;81.70;;;;;;5095561;28;20508;-67
2021/06/20 01:24:58;;;;;;;15.27;12.23;;;21.90;81.80;;;;;;5095971;28;20434;-67
2021/06/20 01:27:25;;;;;;;12.63;10.90;;;21.80;81.90;;;;;;5096053;28;20500;-67
2021/06/20 01:29:52;;;;;;;13.80;12.17;;;21.80;82.00;;;;;;5095302;28;20918;-67
2021/06/20 01:32:19;;;;;;;13.23;11.83;;;21.80;82.80;;;;;;5095652;28;20456;-68
2021/06/20 01:34:47;;;;;;;12.10;11.00;;;21.70;81.90;;;;;;5095554;28;20439;-67
2021/06/20 01:37:18;;;;;;;17.47;11.57;;;21.70;81.90;;;;;;5096020;28;20484;-67
2021/06/20 01:39:46;;;;;;;13.70;12.43;;;21.70;82.20;;;;;;5095489;28;20454;-67
2021/06/20 01:42:14;;;;;;;13.90;12.03;;;21.60;82.30;;;;;;5095539;28;20431;-67
2021/06/20 01:44:51;;;;;;;15.80;12.80;;;21.50;83.10;;;;;;5095085;28;20940;-67
2021/06/20 01:47:19;;;;;;;14.10;12.60;;;21.50;83.10;;;;;;5095618;28;20488;-67
2021/06/20 01:49:46;;;;;;;18.77;13.10;;;21.50;83.30;;;;;;5095202;28;20435;-67
2021/06/20 01:52:17;;;;;;;16.33;13.00;;;21.50;83.60;;;;;;5095549;28;20439;-69
2021/06/20 01:54:52;;;;;;;13.30;12.00;;;21.50;83.60;;;;;;5094528;28;20508;-68
2021/06/20 01:57:21;;;;;;;13.93;12.17;;;21.50;83.70;;;;;;5095532;28;20430;-68
2021/06/20 01:59:48;;;;;;;13.03;11.83;;;21.50;84.10;;;;;;5095278;28;20447;-68
2021/06/20 02:02:15;;;;;;;13.90;12.50;;;21.50;83.90;;;;;;5095442;28;20776;-67
2021/06/20 02:04:42;;;;;;;14.97;12.17;;;21.50;83.90;;;;;;5094780;28;20442;-68
2021/06/20 02:07:10;;;;;;;13.20;11.90;;;21.50;84.10;;;;;;5094688;28;20929;-68
2021/06/20 02:09:37;;;;;;;14.77;11.20;;;21.50;84.30;;;;;;5095129;28;20497;-68
2021/06/20 02:12:09;;;;;;;14.53;12.57;;;21.50;84.50;;;;;;5094576;28;20431;-68
2021/06/20 02:14:37;;;;;;;17.57;12.80;;;21.50;84.50;;;;;;5094859;28;20461;-70
2021/06/20 02:17:23;;;;;;;16.63;12.90;;;21.50;84.50;;;;;;5094571;28;20484;-68
2021/06/20 02:19:50;;;;;;;14.40;12.33;;;21.40;84.80;;;;;;5094938;28;20431;-68
2021/06/20 02:22:18;;;;;;;13.63;12.27;;;21.40;85.50;;;;;;5094784;28;20465;-68
2021/06/20 02:24:45;;;;;;;18.10;12.90;;;21.40;85.70;;;;;;5094414;28;20937;-68
2021/06/20 02:27:13;;;;;;;13.37;12.17;;;21.40;85.60;;;;;;5094756;28;20471;-68
2021/06/20 02:29:47;;;;;;;12.67;11.37;;;21.30;85.80;;;;;;5094516;28;20524;-68
2021/06/20 02:32:14;;;;;;;11.43;10.23;;;21.30;86.10;;;;;;5094468;28;20719;-68
2021/06/20 02:34:42;;;;;;;14.30;10.97;;;21.40;85.80;;;;;;5094640;28;20434;-68
2021/06/20 02:37:10;;;;;;;15.43;10.00;;;21.40;85.40;;;;;;5094111;28;20474;-68
2021/06/20 02:39:40;;;;;;;12.67;10.63;;;21.40;85.40;;;;;;5094568;28;20848;-68
2021/06/20 02:42:08;;;;;;;14.27;11.10;;;21.40;85.10;;;;;;5094089;28;20949;-68
2021/06/20 02:44:37;;;;;;;12.53;11.33;;;21.40;85.90;;;;;;5093648;28;20440;-68
2021/06/20 02:47:05;;;;;;;12.50;11.20;;;21.40;85.10;;;;;;5094309;28;20431;-71
2021/06/20 02:49:37;;;;;;;12.60;11.40;;;21.40;84.80;;;;;;5094455;28;20454;-68
2021/06/20 02:52:05;;;;;;;12.53;11.23;;;21.40;84.80;;;;;;5093950;28;20474;-68
2021/06/20 02:54:34;;;;;;;13.97;11.80;;;21.40;84.90;;;;;;5093851;28;20500;-68
2021/06/20 02:57:01;;;;;;;13.50;11.97;;;21.40;85.00;;;;;;5094304;28;20519;-68
2021/06/20 02:59:28;;;;;;;14.67;12.50;;;21.30;85.30;;;;;;5093531;28;20439;-68
2021/06/20 03:01:57;;;;;;;14.83;11.50;;;21.20;85.80;;;;;;5094290;28;20872;-68
2021/06/20 03:04:24;;;;;;;17.53;11.30;;;21.20;86.10;;;;;;5093786;28;20441;-69
2021/06/20 03:06:51;;;;;;;13.77;12.37;;;21.10;86.40;;;;;;5093951;28;20431;-69
2021/06/20 03:09:21;;;;;;;13.30;12.00;;;21.20;86.40;;;;;;5093448;28;20493;-69
2021/06/20 03:11:53;;;;;;;14.60;11.60;;;21.20;86.40;;;;;;5093910;28;20528;-69
2021/06/20 03:14:20;;;;;;;13.70;12.27;;;21.30;86.40;;;;;;5093282;28;20434;-69
2021/06/20 03:16:48;;;;;;;13.57;11.90;;;21.20;86.10;;;;;;5094086;28;20764;-70
2021/06/20 03:19:17;;;;;;;12.83;11.33;;;21.20;86.40;;;;;;5093527;28;20943;-68
2021/06/20 03:21:44;;;;;;;15.23;11.90;;;21.30;86.20;;;;;;5093961;28;20794;-68
2021/06/20 03:24:11;;;;;;;12.33;11.03;;;21.40;86.30;;;;;;5093076;28;20523;-68
2021/06/20 03:26:38;;;;;;;17.83;10.90;;;21.40;86.50;;;;;;5093643;28;20497;-69
2021/06/20 03:29:05;;;;;;;11.77;10.57;;;21.40;86.20;;;;;;5092734;28;20470;-69
2021/06/20 03:31:34;;;;;;;16.20;12.57;;;21.50;86.00;;;;;;5075460;28;20559;-69
2021/06/20 03:34:04;;;;;;;14.90;10.50;;;21.50;85.90;;;;;;5072605;28;20440;-68
2021/06/20 03:36:36;;;;;;;11.17;9.63;;;21.60;86.00;;;;;;5073132;28;20479;-69
2021/06/20 03:39:04;;;;;;;19.20;11.07;;;21.60;86.10;;;;;;5084916;28;20442;-69
2021/06/20 03:41:33;;;;;;;14.33;12.63;;;21.60;86.00;;;;;;5093213;28;20526;-69
2021/06/20 03:44:04;;;;;;;14.73;12.20;;;21.70;85.90;;;;;;5092875;28;20440;-69
2021/06/20 03:46:31;;;;;;;12.10;10.53;;;21.70;85.70;;;;;;5093400;28;20464;-69
2021/06/20 03:49:00;;;;;;;14.53;12.03;;;21.80;85.70;;;;;;5089583;28;20439;-69
2021/06/20 03:51:34;;;;;;;13.07;11.77;;;21.80;84.80;;;;;;5089720;28;20463;-70
2021/06/20 03:54:05;;;;;;;12.90;11.60;;;21.80;84.40;;;;;;5089938;28;20474;-71
2021/06/20 03:56:35;;;;;;;13.13;10.37;;;21.80;84.10;;;;;;5087585;28;20466;-69
2021/06/20 03:59:04;;;;;;;11.20;10.03;;;21.80;84.20;;;;;;5090604;28;20867;-69
2021/06/20 04:01:31;;;;;;;14.37;11.10;;;21.80;84.10;;;;;;5090270;28;20435;-69
2021/06/20 04:03:59;;;;;;;11.93;10.77;;;21.80;84.40;;;;;;5090535;28;20435;-69
2021/06/20 04:06:26;;;;;;;11.63;10.33;;;21.80;84.40;;;;;;5091164;28;20450;-69
2021/06/20 04:08:55;;;;;;;12.73;10.67;;;21.80;84.40;;;;;;5090904;28;20852;-69
2021/06/20 04:11:22;;;;;;;21.33;13.30;;;21.90;84.80;;;;;;5090211;28;20475;-69
2021/06/20 04:13:49;;;;;;;14.33;12.70;;;21.90;84.90;;;;;;5090979;28;20510;-69
2021/06/20 04:16:16;;;;;;;12.97;11.67;;;21.80;85.30;;;;;;5091265;28;20439;-69
2021/06/20 04:18:46;;;;;;;14.60;11.70;;;21.80;85.40;;;;;;5086669;28;20826;-69
2021/06/20 04:21:17;;;;;;;14.13;12.83;;;21.80;86.00;;;;;;5087083;28;20492;-69
2021/06/20 04:23:45;;;;;;;14.40;12.90;;;21.90;86.70;;;;;;5089874;28;20930;-70
2021/06/20 04:26:13;;;;;;;13.60;12.30;;;21.90;86.50;;;;;;5091053;28;20969;-69
2021/06/20 04:28:41;;;;;;;13.70;12.50;;;22.00;86.50;;;;;;5090358;28;20467;-69
2021/06/20 04:31:08;;;;;;;17.23;12.93;;;22.00;86.40;;;;;;5090554;28;20518;-69
2021/06/20 04:33:35;;;;;;;12.57;10.90;;;22.10;86.30;;;;;;5090574;28;20468;-69
2021/06/20 04:36:02;;;;;;;13.57;12.17;;;22.10;86.60;;;;;;5090906;28;20431;-69
2021/06/20 04:38:30;;;;;;;12.30;11.03;;;22.20;86.90;;;;;;5086403;28;20749;-69
2021/06/20 04:41:02;;;;;;;13.77;12.23;;;22.30;86.60;;;;;;5090305;28;20529;-68
2021/06/20 04:46:24;;;;;;;17.90;12.27;;;22.40;86.20;;;;;;5080315;28;20427;-69
2021/06/20 04:48:52;;;;;;;15.37;13.13;;;22.50;86.20;;;;;;5089978;28;20439;-71
2021/06/20 04:51:23;;;;;;;12.50;11.30;;;22.60;86.70;;;;;;5090692;28;20491;-69
2021/06/20 04:54:07;;;;;;;13.47;12.17;;;22.60;87.00;;;;;;5090372;28;20845;-69
2021/06/20 04:56:36;;;;;;;17.23;11.40;;;22.70;87.10;;;;;;5087972;28;20530;-69
2021/06/20 04:59:05;;;;;;;12.43;10.93;;;22.80;87.60;;;;;;5090114;28;20921;-70
2021/06/20 05:01:44;;;;;;;12.37;11.27;;;22.90;87.80;;;;;;5086176;28;20439;-69
2021/06/20 05:04:11;;;;;;;11.93;10.70;;;23.00;87.80;;;;;;5090348;28;20431;-69
2021/06/20 05:06:38;;;;;;;11.47;10.33;;;23.10;87.30;;;;;;5090236;28;20434;-69
2021/06/20 05:09:06;;;;;;;14.70;11.57;;;23.20;86.90;;;;;;5089310;28;20434;-69
2021/06/20 05:11:37;;;;;;;14.20;12.43;;;23.20;86.30;;;;;;5089904;28;20539;-69
2021/06/20 05:14:11;;;;;;;15.57;12.27;;;23.20;85.90;;;;;;5089815;28;20446;-70
2021/06/20 05:16:49;;;;;;;13.27;10.63;;;23.30;85.30;;;;;;5087402;28;20852;-69
2021/06/20 05:19:16;;;;;;;14.50;10.70;;;23.40;84.40;;;;;;5089734;28;20490;-70
2021/06/20 05:21:43;;;;;;;13.83;10.27;;;23.40;84.40;;;;;;5089665;28;20964;-68
2021/06/20 05:24:13;;;;;;;15.10;12.37;;;23.50;84.50;;;;;;5090283;28;20941;-69
2021/06/20 05:26:41;;;;;;;12.50;11.20;;;23.60;84.70;;;;;;5090201;28;20431;-69
2021/06/20 05:29:15;;;;;;;13.83;11.40;;;23.70;83.90;;;;;;5089858;28;20478;-69
2021/06/20 05:31:42;;;;;;;13.13;11.80;;;23.80;82.60;;;;;;5089635;28;20483;-69
2021/06/20 05:34:09;;;;;;;20.20;12.30;;;23.90;82.60;;;;;;5090680;28;20438;-69
2021/06/20 05:36:36;;;;;;;15.20;11.63;;;23.90;83.00;;;;;;5089658;28;20451;-69
2021/06/20 05:39:06;;;;;;;16.37;11.67;;;24.00;83.30;;;;;;5090338;28;20435;-69
2021/06/20 05:41:33;;;;;;;12.50;11.20;;;24.10;82.60;;;;;;5089737;28;20524;-69
2021/06/20 05:44:01;;;;;;;14.73;12.10;;;24.20;82.20;;;;;;5089783;28;20921;-70
2021/06/20 05:46:31;;;;;;;13.00;11.70;;;24.40;82.20;;;;;;5085831;28;20451;-69
2021/06/20 05:49:03;;;;;;;17.17;13.07;;;24.50;81.50;;;;;;5090406;28;20451;-69
2021/06/20 05:51:33;;;;;;;19.40;14.70;;;24.60;80.90;;;;;;5088943;28;20490;-70
2021/06/20 05:54:01;;;;;;;18.40;13.40;;;24.70;80.90;;;;;;5088764;28;20554;-69
2021/06/20 05:56:29;;;;;;;15.20;11.90;;;24.70;80.10;;;;;;5090274;28;20450;-69
2021/06/20 05:58:57;;;;;;;14.60;13.20;;;24.70;79.90;;;;;;5094127;28;20465;-69
2021/06/20 06:01:28;;;;;;;14.80;12.50;;;24.70;80.60;;;;;;5093166;28;20453;-69
2021/06/20 06:03:56;;;;;;;14.40;11.23;;;24.70;80.60;;;;;;5093691;28;20440;-69
2021/06/20 06:06:23;;;;;;;17.00;11.50;;;24.70;81.20;;;;;;5093473;28;20954;-70
2021/06/20 06:08:50;;;;;;;17.30;11.67;;;24.80;81.90;;;;;;5093229;28;20435;-69
2021/06/20 06:11:27;;;;;;;14.07;11.50;;;24.80;81.00;;;;;;5092673;28;21051;-70
2021/06/20 06:13:55;;;;;;;16.77;11.93;;;24.90;80.20;;;;;;5093712;28;20522;-69
2021/06/20 06:16:23;;;;;;;16.73;15.03;;;25.00;80.70;;;;;;5092034;28;20480;-69
2021/06/20 06:18:53;;;;;;;15.47;12.50;;;25.10;80.90;;;;;;5093631;28;20431;-69
2021/06/20 06:21:22;;;;;;;14.47;11.60;;;25.30;81.20;;;;;;5093232;28;20433;-69
2021/06/20 06:23:49;;;;;;;12.90;11.37;;;25.30;79.00;;;;;;5091967;28;20439;-69
2021/06/20 06:26:16;;;;;;;14.50;12.30;;;25.40;78.60;;;;;;5092780;28;20428;-69
2021/06/20 06:28:43;;;;;;;18.70;11.57;;;25.60;79.60;;;;;;5092923;28;20452;-69
2021/06/20 06:31:10;;;;;;;16.77;12.00;;;25.70;80.10;;;;;;5092962;28;20440;-69
2021/06/20 06:33:37;;;;;;;12.57;11.30;;;25.90;80.50;;;;;;5092829;28;20957;-69
2021/06/20 06:36:08;;;;;;;14.33;11.10;;;26.00;79.80;;;;;;5092452;28;20432;-69
2021/06/20 06:38:37;;;;;;;20.70;13.60;;;26.00;78.50;;;;;;5092674;28;20930;-69
2021/06/20 06:41:05;;;;;;;15.43;11.13;;;26.10;77.10;;;;;;5092408;28;20437;-69
2021/06/20 06:43:32;;;;;;;18.90;14.30;;;26.20;76.50;;;;;;5092869;28;20538;-69
2021/06/20 06:46:00;;;;;;;15.00;11.57;;;26.30;76.70;;;;;;5091543;28;20946;-69
2021/06/20 06:48:27;;;;;;;11.53;10.20;;;26.30;76.60;;;;;;5092473;28;20523;-70
2021/06/20 06:50:57;;;;;;;14.60;10.93;;;26.40;76.20;;;;;;5092599;28;20443;-69
2021/06/20 06:53:27;;;;;;;16.03;10.70;;;26.50;75.80;;;;;;5091612;28;20568;-69
2021/06/20 06:55:57;;;;;;;13.80;10.77;;;26.60;75.60;;;;;;5092188;28;20911;-69
2021/06/20 06:58:29;;;;;;;15.00;10.33;;;26.70;74.90;;;;;;5092190;28;20855;-69
2021/06/20 07:00:57;;;;;;;16.30;10.93;;;26.70;74.10;;;;;;5092617;28;20450;-69
2021/06/20 07:03:24;;;;;;;15.80;9.83;;;26.90;73.90;;;;;;5092181;28;20430;-69
2021/06/20 07:05:51;;;;;;;16.80;10.73;;;27.00;73.70;;;;;;5092352;28;20465;-69
2021/06/20 07:08:18;;;;;;;17.33;10.00;;;27.10;72.90;;;;;;5091145;28;20435;-69
2021/06/20 07:10:46;;;;;;;23.80;11.80;;;27.30;70.90;;;;;;5092799;28;20446;-69
2021/06/20 07:13:15;;;;;;;26.13;13.40;;;27.40;70.30;;;;;;5087467;28;20478;-69
2021/06/20 07:15:42;;;;;;;20.87;10.87;;;27.50;69.80;;;;;;5092129;28;20439;-69
2021/06/20 07:18:09;;;;;;;20.00;12.13;;;27.70;68.90;;;;;;5091975;28;20521;-69
2021/06/20 07:20:36;;;;;;;29.10;12.77;;;27.90;68.50;;;;;;5092426;28;20431;-69
2021/06/20 07:23:03;;;;;;;17.30;11.00;;;28.10;67.80;;;;;;5091035;28;20435;-69
2021/06/20 07:25:30;;;;;;;17.67;9.77;;;28.20;66.10;;;;;;5090962;28;20496;-69
2021/06/20 07:27:57;;;;;;;19.37;9.50;;;28.30;65.40;;;;;;5091527;28;20431;-70
2021/06/20 07:30:27;;;;;;;16.23;9.30;;;28.40;64.30;;;;;;5073835;28;20512;-69
2021/06/20 07:32:56;;;;;;;14.17;9.27;;;28.60;64.30;;;;;;5089213;28;20981;-71
2021/06/20 07:35:23;;;;;;;16.57;9.60;;;28.70;62.30;;;;;;5088867;28;20431;-70
2021/06/20 07:37:50;;;;;;;12.23;9.00;;;28.70;61.80;;;;;;5075178;28;20447;-71
2021/06/20 07:40:17;;;;;;;15.90;9.37;;;28.70;61.60;;;;;;5080704;28;20442;-70
2021/06/20 07:42:46;;;;;;;19.50;9.50;;;28.70;61.50;;;;;;5089830;28;20463;-69
2021/06/20 07:45:15;;;;;;;20.83;9.83;;;28.80;60.90;;;;;;5090315;28;20496;-69
2021/06/20 07:47:44;;;;;;;16.40;9.83;;;28.80;60.40;;;;;;5088493;28;20463;-69
2021/06/20 07:50:13;;;;;;;23.90;9.00;;;28.80;61.10;;;;;;5090276;28;20467;-70
2021/06/20 07:52:41;;;;;;;19.90;9.80;;;28.80;62.20;;;;;;5084076;28;20484;-70
2021/06/20 07:55:09;;;;;;;19.73;9.37;;;28.90;61.90;;;;;;5081727;28;20492;-69
2021/06/20 07:57:36;;;;;;;19.87;10.13;;;29.10;61.60;;;;;;5073714;28;20824;-69
2021/06/20 08:00:05;;;;;;;16.40;9.10;;;29.40;62.40;;;;;;5072346;28;20998;-74
2021/06/20 08:02:32;;;;;;;21.77;9.00;;;29.50;61.80;;;;;;5071203;28;20511;-70
2021/06/20 08:05:00;;;;;;;14.30;9.13;;;29.70;60.60;;;;;;5071807;28;20519;-69
2021/06/20 08:07:27;;;;;;;23.77;9.83;;;29.80;59.80;;;;;;5072331;28;20522;-69
2021/06/20 08:09:56;;;;;;;15.83;8.80;;;29.90;58.50;;;;;;5071699;28;20517;-70
2021/06/20 08:12:23;;;;;;;16.60;9.43;;;30.10;58.10;;;;;;5071400;28;20480;-69
2021/06/20 08:14:50;;;;;;;20.53;9.20;;;30.30;56.50;;;;;;5071946;28;20482;-70
2021/06/20 08:17:16;;;;;;;23.33;9.50;;;30.50;56.90;;;;;;5073003;28;20851;-69
2021/06/20 08:19:44;;;;;;;16.90;8.63;;;30.60;56.00;;;;;;5072648;28;20518;-69
2021/06/20 08:22:12;;;;;;;20.40;9.73;;;30.70;55.20;;;;;;5073114;28;20554;-69
2021/06/20 08:24:40;;;;;;;18.23;8.97;;;30.70;56.00;;;;;;5072926;28;20554;-69
2021/06/20 08:27:07;;;;;;;19.93;8.93;;;30.80;54.80;;;;;;5073168;28;20522;-69
2021/06/20 08:29:35;;;;;;;21.73;9.17;;;30.80;51.80;;;;;;5083901;28;20506;-69
2021/06/20 08:32:02;;;;;;;22.70;9.30;;;30.80;53.00;;;;;;5111667;28;20528;-69
2021/06/20 08:34:30;;;;;;;32.03;9.87;;;30.90;52.80;;;;;;5113624;28;20484;-69
2021/06/20 08:36:57;;;;;;;22.47;9.30;;;30.90;52.20;;;;;;5113524;28;20441;-69
2021/06/20 08:39:26;;;;;;;17.63;7.57;;;31.00;52.90;;;;;;5113429;28;20526;-69
2021/06/20 08:41:53;;;;;;;14.70;7.70;;;31.10;50.70;;;;;;5112658;28;20529;-70
2021/06/20 08:44:24;;;;;;;21.70;8.50;;;31.10;51.00;;;;;;5112999;28;20525;-69
2021/06/20 08:46:51;;;;;;;15.07;8.03;;;31.30;51.30;;;;;;5111346;28;20850;-69
2021/06/20 08:49:20;;;;;;;21.00;8.57;;;31.40;51.10;;;;;;5097073;28;20439;-70
2021/06/20 08:51:49;;;;;;;23.50;8.43;;;31.40;49.40;;;;;;5092941;28;20534;-69
2021/06/20 08:54:20;;;;;;;19.73;7.47;;;31.40;49.80;;;;;;5093102;28;20519;-71
2021/06/20 08:56:50;;;;;;;15.40;7.93;;;31.60;49.60;;;;;;5093014;28;20978;-70
2021/06/20 08:59:18;;;;;;;20.07;8.67;;;31.80;50.10;;;;;;5092717;28;20522;-70
2021/06/20 09:01:52;;;;;;;19.07;7.17;;;32.00;49.80;;;;;;5092295;28;20534;-69
2021/06/20 09:04:30;;;;;;;13.63;7.60;;;32.20;49.60;;;;;;5092876;28;20438;-69
2021/06/20 09:07:00;;;;;;;26.33;9.07;;;32.40;48.20;;;;;;5092883;28;20442;-69
2021/06/20 09:09:29;;;;;;;22.20;7.90;;;32.50;46.90;;;;;;5092621;28;20443;-69
2021/06/20 09:12:08;;;;;;;20.40;8.63;;;32.40;46.10;;;;;;5092802;28;20852;-69
2021/06/20 09:14:43;;;;;;;16.50;8.40;;;32.40;46.90;;;;;;5092721;28;20442;-69
2021/06/20 09:17:10;;;;;;;19.53;7.27;;;32.40;45.70;;;;;;5092850;28;20438;-69
2021/06/20 09:19:39;;;;;;;21.57;7.17;;;32.40;46.10;;;;;;5092673;28;20447;-69
2021/06/20 09:22:09;;;;;;;26.73;8.83;;;32.30;45.30;;;;;;5092313;28;20439;-69
2021/06/20 09:24:37;;;;;;;16.30;8.13;;;32.30;45.60;;;;;;5092741;28;20474;-69
2021/06/20 09:27:07;;;;;;;25.07;8.77;;;32.30;46.70;;;;;;5092664;28;20443;-69
2021/06/20 09:29:37;;;;;;;24.00;8.73;;;32.30;46.00;;;;;;5092479;28;20546;-69
2021/06/20 09:32:06;;;;;;;19.90;7.20;;;32.40;46.20;;;;;;5094227;28;20984;-69
2021/06/20 09:34:43;;;;;;;16.00;6.70;;;32.50;46.00;;;;;;5096466;28;20477;-69
2021/06/20 09:37:10;;;;;;;18.50;8.10;;;32.80;46.10;;;;;;5096635;28;20709;-69
2021/06/20 09:39:42;;;;;;;14.73;6.10;;;33.00;45.70;;;;;;5096213;28;20477;-69
2021/06/20 09:42:12;;;;;;;21.60;6.40;;;33.10;44.80;;;;;;5096388;28;20470;-69
2021/06/20 09:44:45;;;;;;;16.90;7.60;;;33.20;46.00;;;;;;5088246;28;20516;-69
2021/06/20 09:47:13;;;;;;;22.73;7.10;;;33.20;44.50;;;;;;5090092;28;20509;-68
2021/06/20 09:49:40;;;;;;;19.13;9.30;;;33.30;44.80;;;;;;5090888;28;20541;-68
2021/06/20 09:52:10;;;;;;;16.20;7.37;;;33.30;43.80;;;;;;5090796;28;20905;-69
2021/06/20 09:54:39;;;;;;;24.77;7.37;;;33.30;43.90;;;;;;5087085;28;20481;-68
2021/06/20 09:57:20;;;;;;;21.90;7.83;;;33.40;45.10;;;;;;5092493;28;20438;-68
2021/06/20 09:59:56;;;;;;;18.90;6.90;;;33.50;43.60;;;;;;5090622;28;20617;-69
2021/06/20 10:02:26;;;;;;;14.63;6.87;;;33.50;42.40;;;;;;5089450;28;20512;-69
2021/06/20 10:04:54;;;;;;;17.87;7.17;;;33.50;42.60;;;;;;5091571;28;20771;-69
2021/06/20 10:07:25;;;;;;;16.00;8.00;;;33.50;43.30;;;;;;5091853;28;20933;-69
2021/06/20 10:09:53;;;;;;;19.57;8.00;;;33.50;43.90;;;;;;5091204;28;20427;-69
2021/06/20 10:12:23;;;;;;;18.97;9.27;;;33.70;44.70;;;;;;5091405;28;20446;-69
2021/06/20 10:14:57;;;;;;;11.87;9.17;;;33.80;44.90;;;;;;5091188;28;20461;-69
2021/06/20 10:17:30;;;;;;;12.50;9.53;;;33.90;46.50;;;;;;5094492;28;20516;-70
2021/06/20 10:20:00;;;;;;;16.83;9.10;;;34.20;45.60;;;;;;5074444;28;20447;-69
2021/06/20 10:22:36;;;;;;;15.03;8.23;;;34.50;45.90;;;;;;5094012;28;20519;-69
2021/06/20 10:25:06;;;;;;;18.30;9.73;;;34.80;44.50;;;;;;5114627;28;20896;-68
2021/06/20 10:27:37;;;;;;;16.50;9.60;;;34.90;43.60;;;;;;5093179;28;20481;-72
2021/06/20 10:30:07;;;;;;;17.23;7.90;;;35.00;43.50;;;;;;5068679;28;20466;-69
2021/06/20 10:32:43;;;;;;;18.10;9.60;;;35.20;43.20;;;;;;5073971;28;20526;-68
2021/06/20 10:35:16;;;;;;;19.77;9.47;;;35.50;43.20;;;;;;5073700;28;20846;-68
2021/06/20 10:37:43;;;;;;;21.80;10.67;;;35.60;42.00;;;;;;5063025;28;20523;-69
2021/06/20 10:40:25;;;;;;;17.33;9.70;;;35.80;41.80;;;;;;5073912;28;20523;-70
2021/06/20 10:43:13;;;;;;;21.47;9.77;;;35.80;41.10;;;;;;5065161;28;20553;-69
2021/06/20 10:45:41;;;;;;;20.33;9.63;;;35.80;39.80;;;;;;5072655;28;20949;-69
2021/06/20 10:48:17;;;;;;;20.00;8.10;;;35.50;39.30;;;;;;5073652;28;20435;-69
2021/06/20 10:50:46;;;;;;;14.07;8.03;;;35.40;39.80;;;;;;5075088;28;20530;-68
2021/06/20 10:53:18;;;;;;;14.13;8.20;;;35.10;39.80;;;;;;5074529;28;20571;-69
2021/06/20 10:55:48;;;;;;;13.13;8.80;;;34.80;39.90;;;;;;5074148;28;20970;-70
2021/06/20 10:58:19;;;;;;;12.53;7.30;;;34.50;40.30;;;;;;5074525;28;20463;-68
2021/06/20 11:00:47;;;;;;;17.60;8.87;;;34.20;40.90;;;;;;5071426;28;20479;-68
2021/06/20 11:03:16;;;;;;;27.53;9.00;;;34.00;40.60;;;;;;5069975;28;20436;-70
2021/06/20 11:05:47;;;;;;;16.60;7.03;;;33.90;41.60;;;;;;5071780;28;20440;-69
2021/06/20 11:08:26;;;;;;;20.23;8.13;;;33.80;42.30;;;;;;5071941;28;21077;-69
2021/06/20 11:11:11;;;;;;;17.93;7.83;;;33.80;42.00;;;;;;5067888;28;20531;-71
2021/06/20 11:13:40;;;;;;;20.90;7.43;;;33.90;42.30;;;;;;5069355;28;20566;-69
2021/06/20 11:16:09;;;;;;;15.00;6.33;;;34.00;42.00;;;;;;5066815;28;20952;-69
2021/06/20 11:18:36;;;;;;;18.60;6.07;;;34.00;41.40;;;;;;5069772;28;20440;-69
2021/06/20 11:21:04;;;;;;;14.77;7.03;;;34.00;40.60;;;;;;5068674;28;20531;-69
2021/06/20 11:23:31;;;;;;;15.10;6.00;;;33.90;41.70;;;;;;5071123;28;20468;-72
2021/06/20 11:26:00;;;;;;;13.50;6.30;;;33.80;41.00;;;;;;5070356;28;20514;-68
2021/06/20 11:28:27;;;;;;;9.97;4.93;;;33.80;42.10;;;;;;5068931;28;20527;-74
2021/06/20 11:31:05;;;;;;;13.57;5.03;;;33.70;40.90;;;;;;5063296;28;20527;-68
2021/06/20 11:33:33;;;;;;;16.50;5.90;;;33.70;42.30;;;;;;5072960;28;20938;-70
2021/06/20 11:36:00;;;;;;;10.80;6.00;;;33.60;41.90;;;;;;5070474;28;20532;-69
2021/06/20 11:38:32;;;;;;;11.40;5.80;;;33.60;41.60;;;;;;5073445;28;20960;-69
2021/06/20 11:41:10;;;;;;;15.33;6.20;;;33.50;42.00;;;;;;5071042;28;20448;-68
2021/06/20 11:43:40;;;;;;;24.10;5.80;;;33.30;40.80;;;;;;5070098;28;20515;-69
2021/06/20 11:46:18;;;;;;;15.90;5.70;;;33.00;41.70;;;;;;5070732;28;20479;-69
2021/06/20 11:48:54;;;;;;;13.37;4.90;;;32.80;40.90;;;;;;5070287;28;20436;-69
2021/06/20 11:51:40;;;;;;;13.67;5.27;;;32.60;41.50;;;;;;5069020;28;20447;-69
2021/06/20 11:54:19;;;;;;;18.33;5.30;;;32.50;41.70;;;;;;5069989;28;20483;-68
2021/06/20 11:56:51;;;;;;;17.73;5.37;;;32.30;42.20;;;;;;5069470;28;20534;-69
2021/06/20 11:59:31;;;;;;;12.50;5.67;;;32.20;41.80;;;;;;5068856;28;20510;-68
2021/06/20 12:02:00;;;;;;;13.77;5.97;;;32.20;43.10;;;;;;5069229;28;20472;-70
2021/06/20 12:04:29;;;;;;;19.80;6.27;;;32.20;42.80;;;;;;5069506;28;20854;-68
2021/06/20 12:06:56;;;;;;;15.10;6.03;;;32.20;43.10;;;;;;5067840;28;20915;-69
2021/06/20 12:09:24;;;;;;;20.03;5.60;;;32.20;43.60;;;;;;5067974;28;20559;-69
2021/06/20 12:12:00;;;;;;;23.93;5.40;;;32.10;44.00;;;;;;5070391;28;20440;-69
2021/06/20 12:14:28;;;;;;;18.87;6.07;;;32.10;44.50;;;;;;5067971;28;20487;-73
2021/06/20 12:16:59;;;;;;;18.27;6.27;;;32.10;44.50;;;;;;5067859;28;20447;-69
2021/06/20 12:19:30;;;;;;;19.27;6.90;;;32.10;44.40;;;;;;5067587;28;20490;-68
2021/06/20 12:22:08;;;;;;;15.30;5.67;;;32.00;44.20;;;;;;5067202;28;20448;-69
2021/06/20 12:24:42;;;;;;;18.63;6.00;;;32.00;44.10;;;;;;5066828;28;20964;-69
2021/06/20 12:27:10;;;;;;;13.07;5.73;;;32.10;44.20;;;;;;5069375;28;20443;-69
2021/06/20 12:29:37;;;;;;;19.73;6.93;;;32.10;43.80;;;;;;5069452;28;20472;-70
2021/06/20 12:32:07;;;;;;;15.93;6.13;;;32.10;44.00;;;;;;5067956;28;20535;-69
2021/06/20 12:34:46;;;;;;;11.20;5.70;;;32.10;44.00;;;;;;5069151;28;20491;-69
2021/06/20 12:37:13;;;;;;;17.87;6.33;;;32.00;44.10;;;;;;5068698;28;20978;-69
2021/06/20 12:39:43;;;;;;;15.60;6.20;;;32.00;44.60;;;;;;5072307;28;20868;-69
2021/06/20 12:42:10;;;;;;;20.23;6.47;;;32.00;44.20;;;;;;5070110;28;20432;-68
2021/06/20 12:44:39;;;;;;;20.73;5.57;;;31.90;43.70;;;;;;5071369;28;20440;-69